sensor_id;sensor_type;location;lat;lon;timestamp;pressure;altitude;pressure_sealevel;temperature;humidity
43486;BME280;30447;48.742;8.972;2023-12-04T00:00:42;96846.03;;;-6.64;80.70
43486;BME280;30447;48.742;8.972;2023-12-04T00:03:09;96839.69;;;-6.71;80.54
43486;BME280;30447;48.742;8.972;2023-12-04T00:05:35;96832.88;;;-6.46;79.26
43486;BME280;30447;48.742;8.972;2023-12-04T00:08:02;96834.47;;;-6.60;79.07
43486;BME280;30447;48.742;8.972;2023-12-04T00:10:29;96817.63;;;-6.75;80.60
43486;BME280;30447;48.742;8.972;2023-12-04T00:12:55;96820.78;;;-7.17;81.71
43486;BME280;30447;48.742;8.972;2023-12-04T00:15:22;96819.59;;;-7.22;83.62
43486;BME280;30447;48.742;8.972;2023-12-04T00:17:48;96811.69;;;-6.75;81.92
43486;BME280;30447;48.742;8.972;2023-12-04T00:20:15;96808.97;;;-6.65;79.51
43486;BME280;30447;48.742;8.972;2023-12-04T00:22:42;96801.13;;;-6.70;79.17
43486;BME280;30447;48.742;8.972;2023-12-04T00:25:08;96801.56;;;-7.02;78.87
43486;BME280;30447;48.742;8.972;2023-12-04T00:27:35;96789.81;;;-7.02;78.98
43486;BME280;30447;48.742;8.972;2023-12-04T00:30:01;96787.72;;;-7.21;79.63
43486;BME280;30447;48.742;8.972;2023-12-04T00:32:30;96783.66;;;-7.19;80.31
43486;BME280;30447;48.742;8.972;2023-12-04T00:34:56;96781.34;;;-7.16;80.49
43486;BME280;30447;48.742;8.972;2023-12-04T00:37:23;96788.00;;;-7.30;81.56
43486;BME280;30447;48.742;8.972;2023-12-04T00:39:50;96791.56;;;-7.01;83.74
43486;BME280;30447;48.742;8.972;2023-12-04T00:42:16;96790.56;;;-6.78;85.10
43486;BME280;30447;48.742;8.972;2023-12-04T00:44:43;96793.38;;;-6.73;87.55
43486;BME280;30447;48.742;8.972;2023-12-04T00:47:09;96794.81;;;-6.22;88.58
43486;BME280;30447;48.742;8.972;2023-12-04T00:49:36;96790.16;;;-6.03;87.66
43486;BME280;30447;48.742;8.972;2023-12-04T00:52:03;96783.09;;;-5.80;87.33
43486;BME280;30447;48.742;8.972;2023-12-04T00:54:30;96772.91;;;-5.81;84.87
43486;BME280;30447;48.742;8.972;2023-12-04T00:56:57;96780.47;;;-5.81;85.34
43486;BME280;30447;48.742;8.972;2023-12-04T00:59:23;96771.84;;;-5.57;86.73
43486;BME280;30447;48.742;8.972;2023-12-04T01:01:50;96785.03;;;-6.04;86.77
43486;BME280;30447;48.742;8.972;2023-12-04T01:04:17;96777.66;;;-6.28;84.85
43486;BME280;30447;48.742;8.972;2023-12-04T01:06:43;96779.00;;;-6.06;84.32
43486;BME280;30447;48.742;8.972;2023-12-04T01:09:10;96784.06;;;-6.47;82.12
43486;BME280;30447;48.742;8.972;2023-12-04T01:11:36;96778.75;;;-6.52;80.41
43486;BME280;30447;48.742;8.972;2023-12-04T01:14:03;96783.31;;;-6.59;80.01
43486;BME280;30447;48.742;8.972;2023-12-04T01:16:30;96779.13;;;-6.59;79.55
43486;BME280;30447;48.742;8.972;2023-12-04T01:18:57;96774.78;;;-6.34;80.92
43486;BME280;30447;48.742;8.972;2023-12-04T01:21:23;96779.69;;;-6.77;83.06
43486;BME280;30447;48.742;8.972;2023-12-04T01:23:50;96769.25;;;-6.56;83.62
43486;BME280;30447;48.742;8.972;2023-12-04T01:26:17;96762.63;;;-6.54;84.57
43486;BME280;30447;48.742;8.972;2023-12-04T01:28:44;96758.94;;;-6.45;84.32
43486;BME280;30447;48.742;8.972;2023-12-04T01:31:10;96741.09;;;-6.21;84.29
43486;BME280;30447;48.742;8.972;2023-12-04T01:33:37;96734.47;;;-6.19;84.25
43486;BME280;30447;48.742;8.972;2023-12-04T01:36:04;96739.25;;;-6.24;83.95
43486;BME280;30447;48.742;8.972;2023-12-04T01:38:31;96735.09;;;-6.37;81.81
43486;BME280;30447;48.742;8.972;2023-12-04T01:40:57;96734.78;;;-6.15;80.87
43486;BME280;30447;48.742;8.972;2023-12-04T01:43:24;96734.00;;;-6.27;81.79
43486;BME280;30447;48.742;8.972;2023-12-04T01:45:52;96738.31;;;-6.40;82.11
43486;BME280;30447;48.742;8.972;2023-12-04T01:48:20;96732.75;;;-6.34;81.87
43486;BME280;30447;48.742;8.972;2023-12-04T01:50:48;96736.75;;;-6.65;82.59
43486;BME280;30447;48.742;8.972;2023-12-04T01:53:15;96725.22;;;-6.05;85.90
43486;BME280;30447;48.742;8.972;2023-12-04T01:55:42;96728.09;;;-5.99;85.16
43486;BME280;30447;48.742;8.972;2023-12-04T01:58:09;96728.19;;;-5.98;83.50
43486;BME280;30447;48.742;8.972;2023-12-04T02:00:37;96718.66;;;-6.17;83.11
43486;BME280;30447;48.742;8.972;2023-12-04T02:03:04;96730.25;;;-6.05;83.57
43486;BME280;30447;48.742;8.972;2023-12-04T02:05:31;96727.69;;;-6.20;85.37
43486;BME280;30447;48.742;8.972;2023-12-04T02:07:59;96722.84;;;-6.02;86.57
43486;BME280;30447;48.742;8.972;2023-12-04T02:10:26;96714.19;;;-5.92;86.88
43486;BME280;30447;48.742;8.972;2023-12-04T02:12:53;96721.22;;;-5.73;86.32
43486;BME280;30447;48.742;8.972;2023-12-04T02:15:20;96711.75;;;-5.91;85.49
43486;BME280;30447;48.742;8.972;2023-12-04T02:17:46;96716.19;;;-6.02;84.06
43486;BME280;30447;48.742;8.972;2023-12-04T02:20:14;96717.59;;;-6.07;84.83
43486;BME280;30447;48.742;8.972;2023-12-04T02:22:42;96718.16;;;-5.82;85.26
43486;BME280;30447;48.742;8.972;2023-12-04T02:25:10;96712.50;;;-5.78;84.32
43486;BME280;30447;48.742;8.972;2023-12-04T02:27:49;96717.19;;;-5.85;83.03
43486;BME280;30447;48.742;8.972;2023-12-04T02:30:19;96714.38;;;-5.89;82.80
43486;BME280;30447;48.742;8.972;2023-12-04T02:32:49;96718.63;;;-5.88;82.59
43486;BME280;30447;48.742;8.972;2023-12-04T02:35:22;96705.81;;;-6.06;82.74
43486;BME280;30447;48.742;8.972;2023-12-04T02:37:51;96704.88;;;-6.08;82.93
43486;BME280;30447;48.742;8.972;2023-12-04T02:40:20;96703.19;;;-6.08;82.91
43486;BME280;30447;48.742;8.972;2023-12-04T02:42:46;96707.28;;;-6.10;83.00
43486;BME280;30447;48.742;8.972;2023-12-04T02:45:13;96697.59;;;-5.89;83.58
43486;BME280;30447;48.742;8.972;2023-12-04T02:47:40;96690.66;;;-6.35;83.42
43486;BME280;30447;48.742;8.972;2023-12-04T02:50:07;96691.66;;;-5.89;83.31
43486;BME280;30447;48.742;8.972;2023-12-04T02:52:33;96680.31;;;-5.96;82.46
43486;BME280;30447;48.742;8.972;2023-12-04T02:55:00;96678.81;;;-6.36;83.64
43486;BME280;30447;48.742;8.972;2023-12-04T02:57:27;96665.75;;;-6.44;84.28
43486;BME280;30447;48.742;8.972;2023-12-04T02:59:53;96659.47;;;-6.22;84.13
43486;BME280;30447;48.742;8.972;2023-12-04T03:02:20;96662.91;;;-6.06;84.21
43486;BME280;30447;48.742;8.972;2023-12-04T03:04:46;96655.19;;;-6.09;83.81
43486;BME280;30447;48.742;8.972;2023-12-04T03:07:13;96646.94;;;-6.07;84.32
43486;BME280;30447;48.742;8.972;2023-12-04T03:09:40;96648.75;;;-5.89;85.20
43486;BME280;30447;48.742;8.972;2023-12-04T03:12:06;96647.25;;;-5.57;80.57
43486;BME280;30447;48.742;8.972;2023-12-04T03:14:33;96635.75;;;-6.11;79.14
43486;BME280;30447;48.742;8.972;2023-12-04T03:17:00;96626.75;;;-6.49;80.28
43486;BME280;30447;48.742;8.972;2023-12-04T03:19:26;96623.00;;;-6.56;79.62
43486;BME280;30447;48.742;8.972;2023-12-04T03:21:53;96632.13;;;-6.71;79.70
43486;BME280;30447;48.742;8.972;2023-12-04T03:24:19;96627.00;;;-6.73;80.98
43486;BME280;30447;48.742;8.972;2023-12-04T03:26:46;96616.22;;;-6.57;81.71
43486;BME280;30447;48.742;8.972;2023-12-04T03:29:13;96605.47;;;-6.68;81.92
43486;BME280;30447;48.742;8.972;2023-12-04T03:31:39;96599.41;;;-6.56;82.13
43486;BME280;30447;48.742;8.972;2023-12-04T03:34:06;96597.19;;;-6.52;81.39
43486;BME280;30447;48.742;8.972;2023-12-04T03:36:32;96595.75;;;-6.61;81.76
43486;BME280;30447;48.742;8.972;2023-12-04T03:38:59;96589.97;;;-6.74;82.32
43486;BME280;30447;48.742;8.972;2023-12-04T03:41:26;96594.16;;;-6.46;84.16
43486;BME280;30447;48.742;8.972;2023-12-04T03:43:52;96601.06;;;-6.15;85.73
43486;BME280;30447;48.742;8.972;2023-12-04T03:46:19;96600.53;;;-6.09;87.14
43486;BME280;30447;48.742;8.972;2023-12-04T03:48:46;96599.69;;;-5.79;86.52
43486;BME280;30447;48.742;8.972;2023-12-04T03:51:12;96592.75;;;-6.27;88.00
43486;BME280;30447;48.742;8.972;2023-12-04T03:53:39;96580.00;;;-6.15;86.74
43486;BME280;30447;48.742;8.972;2023-12-04T03:56:06;96586.34;;;-6.35;84.61
43486;BME280;30447;48.742;8.972;2023-12-04T03:58:33;96587.97;;;-5.92;83.05
43486;BME280;30447;48.742;8.972;2023-12-04T04:00:59;96585.72;;;-6.18;83.80
43486;BME280;30447;48.742;8.972;2023-12-04T04:03:26;96585.47;;;-6.07;84.31
43486;BME280;30447;48.742;8.972;2023-12-04T04:05:52;96586.41;;;-6.20;86.22
43486;BME280;30447;48.742;8.972;2023-12-04T04:08:19;96577.38;;;-6.17;84.32
43486;BME280;30447;48.742;8.972;2023-12-04T04:10:46;96583.69;;;-6.52;84.62
43486;BME280;30447;48.742;8.972;2023-12-04T04:13:12;96580.78;;;-5.86;83.93
43486;BME280;30447;48.742;8.972;2023-12-04T04:15:39;96583.59;;;-6.25;86.21
43486;BME280;30447;48.742;8.972;2023-12-04T04:18:06;96592.88;;;-5.95;85.31
43486;BME280;30447;48.742;8.972;2023-12-04T04:20:32;96577.13;;;-5.46;84.73
43486;BME280;30447;48.742;8.972;2023-12-04T04:22:59;96587.91;;;-5.79;86.53
43486;BME280;30447;48.742;8.972;2023-12-04T04:25:26;96584.44;;;-5.66;85.20
43486;BME280;30447;48.742;8.972;2023-12-04T04:27:52;96581.19;;;-5.93;85.48
43486;BME280;30447;48.742;8.972;2023-12-04T04:30:19;96582.97;;;-5.62;85.15
43486;BME280;30447;48.742;8.972;2023-12-04T04:32:45;96584.28;;;-5.69;85.48
43486;BME280;30447;48.742;8.972;2023-12-04T04:35:12;96586.25;;;-5.93;86.45
43486;BME280;30447;48.742;8.972;2023-12-04T04:37:39;96583.28;;;-6.01;86.93
43486;BME280;30447;48.742;8.972;2023-12-04T04:40:06;96590.09;;;-5.70;86.36
43486;BME280;30447;48.742;8.972;2023-12-04T04:42:33;96580.00;;;-5.55;85.68
43486;BME280;30447;48.742;8.972;2023-12-04T04:45:00;96565.75;;;-5.54;84.78
43486;BME280;30447;48.742;8.972;2023-12-04T04:47:26;96569.19;;;-5.37;84.61
43486;BME280;30447;48.742;8.972;2023-12-04T04:49:53;96565.44;;;-5.29;84.86
43486;BME280;30447;48.742;8.972;2023-12-04T04:52:19;96572.00;;;-5.33;85.42
43486;BME280;30447;48.742;8.972;2023-12-04T04:54:46;96557.69;;;-5.17;85.57
43486;BME280;30447;48.742;8.972;2023-12-04T04:57:12;96558.75;;;-5.44;85.95
43486;BME280;30447;48.742;8.972;2023-12-04T04:59:39;96546.16;;;-5.12;85.77
43486;BME280;30447;48.742;8.972;2023-12-04T05:02:06;96546.66;;;-5.02;85.54
43486;BME280;30447;48.742;8.972;2023-12-04T05:04:32;96538.81;;;-5.07;86.04
43486;BME280;30447;48.742;8.972;2023-12-04T05:06:59;96531.19;;;-5.09;85.84
43486;BME280;30447;48.742;8.972;2023-12-04T05:09:26;96531.47;;;-5.19;86.40
43486;BME280;30447;48.742;8.972;2023-12-04T05:11:52;96521.97;;;-4.92;86.29
43486;BME280;30447;48.742;8.972;2023-12-04T05:14:19;96523.13;;;-5.01;85.91
43486;BME280;30447;48.742;8.972;2023-12-04T05:16:46;96515.25;;;-4.91;86.62
43486;BME280;30447;48.742;8.972;2023-12-04T05:19:12;96511.50;;;-4.98;86.89
43486;BME280;30447;48.742;8.972;2023-12-04T05:21:39;96504.19;;;-4.93;86.95
43486;BME280;30447;48.742;8.972;2023-12-04T05:24:05;96498.16;;;-4.95;86.81
43486;BME280;30447;48.742;8.972;2023-12-04T05:26:32;96494.50;;;-5.17;88.02
43486;BME280;30447;48.742;8.972;2023-12-04T05:28:59;96505.94;;;-4.92;88.81
43486;BME280;30447;48.742;8.972;2023-12-04T05:31:26;96507.00;;;-4.72;87.15
43486;BME280;30447;48.742;8.972;2023-12-04T05:33:52;96504.94;;;-5.11;87.93
43486;BME280;30447;48.742;8.972;2023-12-04T05:36:19;96497.81;;;-4.70;87.52
43486;BME280;30447;48.742;8.972;2023-12-04T05:38:46;96502.87;;;-4.70;86.78
43486;BME280;30447;48.742;8.972;2023-12-04T05:41:12;96508.16;;;-4.65;86.16
43486;BME280;30447;48.742;8.972;2023-12-04T05:43:39;96494.69;;;-4.97;88.16
43486;BME280;30447;48.742;8.972;2023-12-04T05:46:05;96501.44;;;-4.65;88.02
43486;BME280;30447;48.742;8.972;2023-12-04T05:48:32;96506.03;;;-4.24;85.74
43486;BME280;30447;48.742;8.972;2023-12-04T05:50:59;96496.53;;;-4.12;85.30
43486;BME280;30447;48.742;8.972;2023-12-04T05:53:25;96499.38;;;-4.39;85.21
43486;BME280;30447;48.742;8.972;2023-12-04T05:55:52;96495.69;;;-4.62;86.85
43486;BME280;30447;48.742;8.972;2023-12-04T05:58:18;96491.66;;;-4.42;85.31
43486;BME280;30447;48.742;8.972;2023-12-04T06:00:45;96490.13;;;-4.55;85.12
43486;BME280;30447;48.742;8.972;2023-12-04T06:03:11;96491.38;;;-4.80;85.85
43486;BME280;30447;48.742;8.972;2023-12-04T06:05:38;96484.69;;;-4.79;85.51
43486;BME280;30447;48.742;8.972;2023-12-04T06:08:05;96491.56;;;-4.60;86.31
43486;BME280;30447;48.742;8.972;2023-12-04T06:10:31;96493.31;;;-4.42;84.96
43486;BME280;30447;48.742;8.972;2023-12-04T06:12:59;96495.75;;;-4.77;86.44
43486;BME280;30447;48.742;8.972;2023-12-04T06:15:26;96490.13;;;-4.55;86.13
43486;BME280;30447;48.742;8.972;2023-12-04T06:17:53;96495.28;;;-4.70;86.43
43486;BME280;30447;48.742;8.972;2023-12-04T06:20:19;96487.84;;;-4.50;86.12
43486;BME280;30447;48.742;8.972;2023-12-04T06:22:46;96491.81;;;-4.55;86.34
43486;BME280;30447;48.742;8.972;2023-12-04T06:25:13;96485.56;;;-4.79;87.48
43486;BME280;30447;48.742;8.972;2023-12-04T06:27:41;96476.06;;;-4.33;87.26
43486;BME280;30447;48.742;8.972;2023-12-04T06:30:08;96473.06;;;-4.42;86.42
43486;BME280;30447;48.742;8.972;2023-12-04T06:32:34;96478.44;;;-4.53;86.47
43486;BME280;30447;48.742;8.972;2023-12-04T06:35:01;96473.28;;;-4.38;86.81
43486;BME280;30447;48.742;8.972;2023-12-04T06:37:29;96475.28;;;-4.32;86.06
43486;BME280;30447;48.742;8.972;2023-12-04T06:39:59;96474.72;;;-4.43;87.48
43486;BME280;30447;48.742;8.972;2023-12-04T06:42:28;96464.78;;;-4.05;86.53
43486;BME280;30447;48.742;8.972;2023-12-04T06:44:56;96465.37;;;-4.27;85.79
43486;BME280;30447;48.742;8.972;2023-12-04T06:47:23;96457.69;;;-4.12;86.17
43486;BME280;30447;48.742;8.972;2023-12-04T06:49:50;96455.03;;;-4.65;86.69
43486;BME280;30447;48.742;8.972;2023-12-04T06:52:17;96455.81;;;-4.49;87.42
43486;BME280;30447;48.742;8.972;2023-12-04T06:54:43;96452.66;;;-4.45;87.25
43486;BME280;30447;48.742;8.972;2023-12-04T06:57:10;96451.44;;;-4.54;87.87
43486;BME280;30447;48.742;8.972;2023-12-04T06:59:36;96451.25;;;-4.57;87.78
43486;BME280;30447;48.742;8.972;2023-12-04T07:02:03;96450.16;;;-4.79;88.90
43486;BME280;30447;48.742;8.972;2023-12-04T07:04:31;96451.09;;;-4.43;88.46
43486;BME280;30447;48.742;8.972;2023-12-04T07:06:58;96438.03;;;-4.34;86.90
43486;BME280;30447;48.742;8.972;2023-12-04T07:09:32;96429.62;;;-4.33;87.12
43486;BME280;30447;48.742;8.972;2023-12-04T07:12:00;96440.50;;;-4.53;87.95
43486;BME280;30447;48.742;8.972;2023-12-04T07:14:28;96429.00;;;-4.64;89.01
43486;BME280;30447;48.742;8.972;2023-12-04T07:16:55;96432.75;;;-4.39;87.35
43486;BME280;30447;48.742;8.972;2023-12-04T07:19:22;96427.88;;;-4.18;86.82
43486;BME280;30447;48.742;8.972;2023-12-04T07:21:48;96417.91;;;-4.15;86.72
43486;BME280;30447;48.742;8.972;2023-12-04T07:24:15;96428.22;;;-4.28;87.66
43486;BME280;30447;48.742;8.972;2023-12-04T07:26:42;96421.06;;;-4.19;87.83
43486;BME280;30447;48.742;8.972;2023-12-04T07:29:09;96415.31;;;-3.98;86.80
43486;BME280;30447;48.742;8.972;2023-12-04T07:31:37;96416.19;;;-3.97;87.57
43486;BME280;30447;48.742;8.972;2023-12-04T07:34:04;96416.00;;;-3.84;86.80
43486;BME280;30447;48.742;8.972;2023-12-04T07:36:30;96418.94;;;-3.93;87.82
43486;BME280;30447;48.742;8.972;2023-12-04T07:38:57;96421.53;;;-3.73;86.55
43486;BME280;30447;48.742;8.972;2023-12-04T07:41:24;96421.53;;;-3.73;86.50
43486;BME280;30447;48.742;8.972;2023-12-04T07:43:51;96421.97;;;-3.82;87.66
43486;BME280;30447;48.742;8.972;2023-12-04T07:46:17;96419.00;;;-3.91;87.87
43486;BME280;30447;48.742;8.972;2023-12-04T07:48:44;96422.28;;;-3.76;86.65
43486;BME280;30447;48.742;8.972;2023-12-04T07:51:11;96418.56;;;-4.01;88.49
43486;BME280;30447;48.742;8.972;2023-12-04T07:53:38;96431.47;;;-3.96;88.62
43486;BME280;30447;48.742;8.972;2023-12-04T07:56:05;96422.50;;;-3.71;88.65
43486;BME280;30447;48.742;8.972;2023-12-04T07:58:32;96417.78;;;-3.63;88.67
43486;BME280;30447;48.742;8.972;2023-12-04T08:00:59;96412.44;;;-3.32;88.04
43486;BME280;30447;48.742;8.972;2023-12-04T08:03:26;96404.37;;;-3.42;87.31
43486;BME280;30447;48.742;8.972;2023-12-04T08:05:53;96411.03;;;-3.45;86.96
43486;BME280;30447;48.742;8.972;2023-12-04T08:08:20;96409.38;;;-3.44;87.12
43486;BME280;30447;48.742;8.972;2023-12-04T08:10:47;96407.12;;;-3.56;88.07
43486;BME280;30447;48.742;8.972;2023-12-04T08:13:14;96408.59;;;-3.79;90.37
43486;BME280;30447;48.742;8.972;2023-12-04T08:15:41;96417.91;;;-3.60;89.79
43486;BME280;30447;48.742;8.972;2023-12-04T08:18:07;96391.59;;;-3.26;88.45
43486;BME280;30447;48.742;8.972;2023-12-04T08:20:34;96394.00;;;-3.09;88.70
43486;BME280;30447;48.742;8.972;2023-12-04T08:23:00;96392.84;;;-2.98;88.39
43486;BME280;30447;48.742;8.972;2023-12-04T08:25:27;96388.69;;;-2.76;87.48
43486;BME280;30447;48.742;8.972;2023-12-04T08:27:54;96395.03;;;-2.86;87.37
43486;BME280;30447;48.742;8.972;2023-12-04T08:30:20;96389.75;;;-2.90;88.10
43486;BME280;30447;48.742;8.972;2023-12-04T08:32:47;96384.25;;;-2.60;87.93
43486;BME280;30447;48.742;8.972;2023-12-04T08:35:13;96380.13;;;-2.58;85.94
43486;BME280;30447;48.742;8.972;2023-12-04T08:37:40;96381.34;;;-2.29;85.41
43486;BME280;30447;48.742;8.972;2023-12-04T08:40:07;96370.59;;;-2.23;84.31
43486;BME280;30447;48.742;8.972;2023-12-04T08:42:34;96372.16;;;-2.25;86.30
43486;BME280;30447;48.742;8.972;2023-12-04T08:45:01;96378.81;;;-2.07;85.52
43486;BME280;30447;48.742;8.972;2023-12-04T08:47:28;96375.09;;;-1.94;83.76
43486;BME280;30447;48.742;8.972;2023-12-04T08:49:54;96384.00;;;-1.83;84.14
43486;BME280;30447;48.742;8.972;2023-12-04T08:52:21;96385.97;;;-1.76;83.88
43486;BME280;30447;48.742;8.972;2023-12-04T08:54:47;96386.53;;;-1.83;83.33
43486;BME280;30447;48.742;8.972;2023-12-04T08:57:14;96371.44;;;-2.01;83.76
43486;BME280;30447;48.742;8.972;2023-12-04T08:59:41;96383.69;;;-1.91;84.57
43486;BME280;30447;48.742;8.972;2023-12-04T09:02:08;96379.03;;;-1.80;83.43
43486;BME280;30447;48.742;8.972;2023-12-04T09:04:34;96381.37;;;-1.84;82.74
43486;BME280;30447;48.742;8.972;2023-12-04T09:07:01;96380.72;;;-2.02;83.57
43486;BME280;30447;48.742;8.972;2023-12-04T09:09:27;96381.69;;;-1.77;84.36
43486;BME280;30447;48.742;8.972;2023-12-04T09:11:54;96385.34;;;-1.70;83.26
43486;BME280;30447;48.742;8.972;2023-12-04T09:14:21;96393.28;;;-1.83;83.16
43486;BME280;30447;48.742;8.972;2023-12-04T09:16:47;96391.47;;;-1.65;82.59
43486;BME280;30447;48.742;8.972;2023-12-04T09:19:14;96384.41;;;-1.72;83.53
43486;BME280;30447;48.742;8.972;2023-12-04T09:21:41;96389.63;;;-1.46;81.81
43486;BME280;30447;48.742;8.972;2023-12-04T09:24:07;96392.03;;;-1.72;83.31
43486;BME280;30447;48.742;8.972;2023-12-04T09:26:34;96396.53;;;-1.65;83.88
43486;BME280;30447;48.742;8.972;2023-12-04T09:29:00;96395.87;;;-1.61;83.62
43486;BME280;30447;48.742;8.972;2023-12-04T09:31:27;96396.28;;;-1.50;81.99
43486;BME280;30447;48.742;8.972;2023-12-04T09:33:54;96403.72;;;-1.54;82.53
43486;BME280;30447;48.742;8.972;2023-12-04T09:36:20;96407.38;;;-1.69;83.69
43486;BME280;30447;48.742;8.972;2023-12-04T09:38:47;96388.84;;;-1.66;82.58
43486;BME280;30447;48.742;8.972;2023-12-04T09:41:15;96385.41;;;-1.68;82.84
43486;BME280;30447;48.742;8.972;2023-12-04T09:43:43;96389.00;;;-1.63;83.00
43486;BME280;30447;48.742;8.972;2023-12-04T09:46:11;96401.84;;;-1.58;84.25
43486;BME280;30447;48.742;8.972;2023-12-04T09:48:40;96394.69;;;-1.69;84.38
43486;BME280;30447;48.742;8.972;2023-12-04T09:51:09;96394.88;;;-1.41;83.66
43486;BME280;30447;48.742;8.972;2023-12-04T09:53:36;96390.56;;;-1.44;84.16
43486;BME280;30447;48.742;8.972;2023-12-04T09:56:04;96385.34;;;-1.70;85.09
43486;BME280;30447;48.742;8.972;2023-12-04T09:58:31;96387.19;;;-1.66;85.13
43486;BME280;30447;48.742;8.972;2023-12-04T10:01:01;96384.25;;;-1.54;84.59
43486;BME280;30447;48.742;8.972;2023-12-04T10:03:28;96391.88;;;-1.31;83.38
43486;BME280;30447;48.742;8.972;2023-12-04T10:05:56;96379.13;;;-1.33;82.93
43486;BME280;30447;48.742;8.972;2023-12-04T10:08:23;96373.03;;;-1.13;81.89
43486;BME280;30447;48.742;8.972;2023-12-04T10:10:49;96380.13;;;-1.04;82.42
43486;BME280;30447;48.742;8.972;2023-12-04T10:13:16;96379.78;;;-1.14;82.22
43486;BME280;30447;48.742;8.972;2023-12-04T10:15:50;96379.69;;;-1.17;82.98
43486;BME280;30447;48.742;8.972;2023-12-04T10:18:28;96369.06;;;-1.07;81.45
43486;BME280;30447;48.742;8.972;2023-12-04T10:20:57;96360.78;;;-0.76;81.25
43486;BME280;30447;48.742;8.972;2023-12-04T10:23:40;96363.41;;;-0.98;82.79
43486;BME280;30447;48.742;8.972;2023-12-04T10:26:08;96355.25;;;-0.89;81.56
43486;BME280;30447;48.742;8.972;2023-12-04T10:28:36;96344.22;;;-0.89;81.97
43486;BME280;30447;48.742;8.972;2023-12-04T10:31:02;96345.94;;;-0.88;82.11
43486;BME280;30447;48.742;8.972;2023-12-04T10:33:33;96338.69;;;-0.77;81.71
43486;BME280;30447;48.742;8.972;2023-12-04T10:35:59;96329.44;;;-0.49;80.39
43486;BME280;30447;48.742;8.972;2023-12-04T10:38:26;96316.91;;;-0.43;80.35
43486;BME280;30447;48.742;8.972;2023-12-04T10:40:53;96306.19;;;-0.33;80.84
43486;BME280;30447;48.742;8.972;2023-12-04T10:43:22;96305.34;;;-0.33;80.75
43486;BME280;30447;48.742;8.972;2023-12-04T10:45:50;96306.81;;;-0.40;80.83
43486;BME280;30447;48.742;8.972;2023-12-04T10:48:18;96303.16;;;-0.22;81.27
43486;BME280;30447;48.742;8.972;2023-12-04T10:50:47;96290.72;;;-0.39;82.27
43486;BME280;30447;48.742;8.972;2023-12-04T10:53:17;96273.25;;;-0.28;82.18
43486;BME280;30447;48.742;8.972;2023-12-04T10:55:44;96275.91;;;-0.25;82.64
43486;BME280;30447;48.742;8.972;2023-12-04T10:58:14;96263.97;;;-0.26;81.99
43486;BME280;30447;48.742;8.972;2023-12-04T11:00:44;96257.69;;;-0.10;82.42
43486;BME280;30447;48.742;8.972;2023-12-04T11:03:31;96264.25;;;-0.17;82.41
43486;BME280;30447;48.742;8.972;2023-12-04T11:06:01;96269.28;;;0.09;82.35
43486;BME280;30447;48.742;8.972;2023-12-04T11:08:35;96261.69;;;0.11;82.18
43486;BME280;30447;48.742;8.972;2023-12-04T11:11:04;96259.91;;;0.08;82.51
43486;BME280;30447;48.742;8.972;2023-12-04T11:13:42;96263.03;;;0.27;81.74
43486;BME280;30447;48.742;8.972;2023-12-04T11:16:28;96254.16;;;0.14;82.85
43486;BME280;30447;48.742;8.972;2023-12-04T11:19:18;96255.28;;;0.24;83.24
43486;BME280;30447;48.742;8.972;2023-12-04T11:21:58;96249.69;;;0.07;83.87
43486;BME280;30447;48.742;8.972;2023-12-04T11:24:26;96247.44;;;0.18;84.42
43486;BME280;30447;48.742;8.972;2023-12-04T11:26:54;96246.00;;;0.26;84.94
43486;BME280;30447;48.742;8.972;2023-12-04T11:29:23;96246.00;;;0.26;85.97
43486;BME280;30447;48.742;8.972;2023-12-04T11:31:50;96242.81;;;0.33;85.28
43486;BME280;30447;48.742;8.972;2023-12-04T11:34:17;96237.09;;;0.42;85.48
43486;BME280;30447;48.742;8.972;2023-12-04T11:36:44;96222.69;;;0.43;85.52
43486;BME280;30447;48.742;8.972;2023-12-04T11:39:11;96206.59;;;0.45;85.60
43486;BME280;30447;48.742;8.972;2023-12-04T11:41:40;96205.91;;;0.51;84.81
43486;BME280;30447;48.742;8.972;2023-12-04T11:44:14;96188.81;;;0.47;85.95
43486;BME280;30447;48.742;8.972;2023-12-04T11:47:02;96177.56;;;0.72;86.03
43486;BME280;30447;48.742;8.972;2023-12-04T11:49:31;96163.22;;;0.77;86.22
43486;BME280;30447;48.742;8.972;2023-12-04T11:51:59;96154.00;;;0.81;86.26
43486;BME280;30447;48.742;8.972;2023-12-04T11:54:28;96164.59;;;0.64;86.81
43486;BME280;30447;48.742;8.972;2023-12-04T11:59:38;96153.22;;;0.84;87.88
43486;BME280;30447;48.742;8.972;2023-12-04T12:02:10;96146.44;;;0.86;88.31
43486;BME280;30447;48.742;8.972;2023-12-04T12:04:37;96145.03;;;0.97;87.78
43486;BME280;30447;48.742;8.972;2023-12-04T12:07:05;96147.16;;;0.80;89.25
43486;BME280;30447;48.742;8.972;2023-12-04T12:09:33;96140.03;;;1.02;88.46
43486;BME280;30447;48.742;8.972;2023-12-04T12:12:01;96141.03;;;1.07;88.94
43486;BME280;30447;48.742;8.972;2023-12-04T12:14:29;96124.97;;;1.13;88.43
43486;BME280;30447;48.742;8.972;2023-12-04T12:16:59;96126.78;;;1.17;90.39
43486;BME280;30447;48.742;8.972;2023-12-04T12:19:27;96132.25;;;1.32;90.31
43486;BME280;30447;48.742;8.972;2023-12-04T12:21:54;96106.66;;;1.29;90.15
43486;BME280;30447;48.742;8.972;2023-12-04T12:24:21;96103.81;;;1.55;89.93
43486;BME280;30447;48.742;8.972;2023-12-04T12:26:47;96110.12;;;1.33;89.83
43486;BME280;30447;48.742;8.972;2023-12-04T12:29:14;96113.41;;;1.27;90.85
43486;BME280;30447;48.742;8.972;2023-12-04T12:31:41;96112.44;;;1.22;89.91
43486;BME280;30447;48.742;8.972;2023-12-04T12:34:07;96110.41;;;1.45;88.94
43486;BME280;30447;48.742;8.972;2023-12-04T12:36:34;96109.09;;;1.25;89.54
43486;BME280;30447;48.742;8.972;2023-12-04T12:39:01;96103.63;;;1.09;90.88
43486;BME280;30447;48.742;8.972;2023-12-04T12:41:30;96105.53;;;1.18;88.78
43486;BME280;30447;48.742;8.972;2023-12-04T12:43:57;96102.88;;;1.13;89.07
43486;BME280;30447;48.742;8.972;2023-12-04T12:46:24;96106.53;;;1.23;88.93
43486;BME280;30447;48.742;8.972;2023-12-04T12:48:52;96089.41;;;1.19;89.45
43486;BME280;30447;48.742;8.972;2023-12-04T12:51:18;96101.34;;;1.20;90.09
43486;BME280;30447;48.742;8.972;2023-12-04T12:53:45;96082.63;;;1.21;89.22
43486;BME280;30447;48.742;8.972;2023-12-04T12:56:12;96077.03;;;1.36;88.98
43486;BME280;30447;48.742;8.972;2023-12-04T12:58:38;96080.25;;;1.29;88.67
43486;BME280;30447;48.742;8.972;2023-12-04T13:01:09;96075.53;;;1.46;88.62
43486;BME280;30447;48.742;8.972;2023-12-04T13:03:36;96068.75;;;1.47;87.60
43486;BME280;30447;48.742;8.972;2023-12-04T13:06:04;96073.63;;;1.37;87.04